createdAt,value
2023-02-14T00:00:15.249Z,2.19
2023-02-14T00:01:17.007Z,2.36
2023-02-14T00:02:20.300Z,2.41
2023-02-14T00:03:21.992Z,2.54
2023-02-14T00:04:25.065Z,2.61
2023-02-14T00:05:26.750Z,2.83
2023-02-14T00:06:32.689Z,2.81
2023-02-14T00:07:35.278Z,2.76
2023-02-14T00:08:37.086Z,2.68
2023-02-14T00:09:39.621Z,2.84
2023-02-14T00:10:44.154Z,2.70
2023-02-14T00:11:48.081Z,2.34
2023-02-14T00:12:49.736Z,2.28
2023-02-14T00:14:06.468Z,2.36
2023-02-14T00:15:25.708Z,2.59
2023-02-14T00:16:27.315Z,1.91
2023-02-14T00:17:29.052Z,2.06
2023-02-14T00:18:45.566Z,2.25
2023-02-14T00:19:48.460Z,2.55
2023-02-14T00:20:50.045Z,2.81
2023-02-14T00:21:52.711Z,2.95
2023-02-14T00:22:55.722Z,3.22
2023-02-14T00:23:57.426Z,3.19
2023-02-14T00:24:59.967Z,3.19
2023-02-14T00:26:01.726Z,3.15
2023-02-14T00:27:05.682Z,2.98
2023-02-14T00:28:07.349Z,2.82
2023-02-14T00:29:12.070Z,1.95
2023-02-14T00:30:14.147Z,2.15
2023-02-14T00:31:16.924Z,2.19
2023-02-14T00:32:18.591Z,2.16
2023-02-14T00:33:21.159Z,2.21
2023-02-14T00:34:22.818Z,2.59
2023-02-14T00:35:25.346Z,2.26
2023-02-14T00:36:27.180Z,2.30
2023-02-14T00:37:29.726Z,2.29
2023-02-14T00:38:31.292Z,2.15
2023-02-14T00:39:33.835Z,2.34
2023-02-14T00:40:35.776Z,2.59
2023-02-14T00:41:38.781Z,2.24
2023-02-14T00:42:41.992Z,2.17
2023-02-14T00:43:44.500Z,1.95
2023-02-14T00:44:46.280Z,1.93
2023-02-14T00:45:49.555Z,2.07
2023-02-14T00:46:51.182Z,2.34
2023-02-14T00:47:53.778Z,2.45
2023-02-14T00:48:55.466Z,2.62
2023-02-14T00:50:02.751Z,2.67
2023-02-14T00:51:04.683Z,2.64
2023-02-14T00:52:07.210Z,2.78
2023-02-14T00:53:08.791Z,2.66
2023-02-14T00:54:11.544Z,2.56
2023-02-14T00:55:13.135Z,2.53
2023-02-14T00:56:16.270Z,2.62
2023-02-14T00:57:17.935Z,2.57
2023-02-14T00:58:22.103Z,2.59
2023-02-14T00:59:23.684Z,2.55
2023-02-14T01:00:26.462Z,2.63
2023-02-14T01:01:28.181Z,2.38
2023-02-14T01:02:30.745Z,2.41
2023-02-14T01:03:32.662Z,2.52
2023-02-14T01:04:35.988Z,2.63
2023-02-14T01:05:37.543Z,2.52
2023-02-14T01:06:40.127Z,2.48
2023-02-14T01:07:41.680Z,2.47
2023-02-14T01:08:44.652Z,2.29
2023-02-14T01:09:47.433Z,2.16
2023-02-14T01:10:49.029Z,2.37
2023-02-14T01:11:51.607Z,2.32
2023-02-14T01:12:53.351Z,2.52
2023-02-14T01:13:59.492Z,2.40
2023-02-14T01:15:01.053Z,2.33
2023-02-14T01:16:07.842Z,2.45
2023-02-14T01:17:09.464Z,2.46
2023-02-14T01:18:12.214Z,2.52
2023-02-14T01:19:14.315Z,2.50
2023-02-14T01:20:17.148Z,2.53
2023-02-14T01:21:20.807Z,2.60
2023-02-14T01:22:23.464Z,2.60
2023-02-14T01:23:25.459Z,2.66
2023-02-14T01:24:29.700Z,2.62
2023-02-14T01:25:31.825Z,2.63
2023-02-14T01:26:35.936Z,2.49
2023-02-14T01:27:37.704Z,2.56
2023-02-14T01:28:40.326Z,2.40
2023-02-14T01:29:44.359Z,2.35
2023-02-14T01:30:45.952Z,2.23
2023-02-14T01:31:49.421Z,2.18
2023-02-14T01:32:51.059Z,2.04
2023-02-14T01:33:54.656Z,1.93
2023-02-14T01:34:56.245Z,1.99
2023-02-14T01:36:00.676Z,2.01
2023-02-14T01:37:03.498Z,2.08
2023-02-14T01:38:05.037Z,1.89
2023-02-14T01:39:10.140Z,1.86
2023-02-14T01:40:13.947Z,1.93
2023-02-14T01:41:16.587Z,1.71
2023-02-14T01:42:18.244Z,1.52
2023-02-14T01:43:20.929Z,1.50
2023-02-14T01:45:07.527Z,1.07
2023-02-14T01:46:10.919Z,0.92
2023-02-14T01:47:13.665Z,0.75
2023-02-14T01:48:17.253Z,0.72
2023-02-14T01:49:25.692Z,0.52
2023-02-14T01:50:34.242Z,0.85
2023-02-14T01:51:39.546Z,0.94
2023-02-14T01:52:49.403Z,1.01
2023-02-14T01:53:53.324Z,1.18
2023-02-14T01:54:58.402Z,1.09
2023-02-14T01:56:04.694Z,0.96
2023-02-14T01:57:09.749Z,0.70
2023-02-14T01:58:16.442Z,0.82
2023-02-14T01:59:21.182Z,0.97
2023-02-14T02:00:45.354Z,0.89
2023-02-14T02:01:56.975Z,0.87
2023-02-14T02:03:00.009Z,0.87
2023-02-14T02:04:08.227Z,0.94
2023-02-14T02:05:10.201Z,1.18
2023-02-14T02:06:17.630Z,1.13
2023-02-14T02:07:23.740Z,1.31
2023-02-14T02:08:27.349Z,1.02
2023-02-14T02:09:35.606Z,1.15
2023-02-14T02:10:37.223Z,1.22
2023-02-14T02:11:40.168Z,1.33
2023-02-14T02:12:42.216Z,1.33
2023-02-14T02:13:44.778Z,1.29
2023-02-14T02:14:50.900Z,1.40
2023-02-14T02:16:07.980Z,1.51
2023-02-14T02:17:26.335Z,1.33
2023-02-14T02:18:42.070Z,1.30
2023-02-14T02:20:25.636Z,1.49
2023-02-14T02:22:05.438Z,1.47
2023-02-14T02:23:33.355Z,1.55
2023-02-14T02:24:48.447Z,1.63
2023-02-14T02:26:22.360Z,1.61
2023-02-14T02:27:39.597Z,1.65
2023-02-14T02:29:08.810Z,1.56
2023-02-14T02:30:54.108Z,1.35
2023-02-14T02:32:26.538Z,1.44
2023-02-14T02:34:03.758Z,1.53
2023-02-14T02:35:40.814Z,1.59
2023-02-14T02:37:04.889Z,1.59
2023-02-14T02:38:23.248Z,1.43
2023-02-14T02:39:41.003Z,1.32
2023-02-14T02:40:52.628Z,1.37
2023-02-14T02:42:13.150Z,1.51
2023-02-14T02:43:27.533Z,1.71
2023-02-14T02:44:40.837Z,1.69
2023-02-14T02:46:08.377Z,1.77
2023-02-14T02:47:20.370Z,1.80
2023-02-14T02:48:26.213Z,1.86
2023-02-14T02:49:54.970Z,1.86
2023-02-14T02:51:17.547Z,1.59
2023-02-14T02:52:44.812Z,1.64
2023-02-14T02:53:54.094Z,1.68
2023-02-14T02:55:01.010Z,1.79
2023-02-14T02:56:26.624Z,1.70
2023-02-14T02:57:34.674Z,1.66
2023-02-14T02:58:40.199Z,1.72
2023-02-14T02:59:47.176Z,1.73
2023-02-14T03:00:52.058Z,1.79
2023-02-14T03:02:00.697Z,1.77
2023-02-14T03:03:20.991Z,1.81
2023-02-14T03:04:41.879Z,1.82
2023-02-14T03:05:44.039Z,1.80
2023-02-14T03:06:49.050Z,1.81
2023-02-14T03:07:51.016Z,1.76
2023-02-14T03:08:55.251Z,1.78
2023-02-14T03:09:58.970Z,1.78
2023-02-14T03:11:04.125Z,1.89
2023-02-14T03:12:20.002Z,1.95
2023-02-14T03:13:58.480Z,1.95
2023-02-14T03:15:08.595Z,1.84
2023-02-14T03:16:28.283Z,1.65
2023-02-14T03:17:39.962Z,1.66
2023-02-14T03:18:59.046Z,1.79
2023-02-14T03:20:14.540Z,1.86
2023-02-14T03:21:26.005Z,1.78
2023-02-14T03:22:43.746Z,1.68
2023-02-14T03:23:53.842Z,1.43
2023-02-14T03:24:58.436Z,1.33
2023-02-14T03:26:12.647Z,1.38
2023-02-14T03:27:20.986Z,1.53
2023-02-14T03:28:31.056Z,1.68
2023-02-14T03:29:44.631Z,1.78
2023-02-14T03:30:53.839Z,1.90
2023-02-14T03:32:01.158Z,1.70
2023-02-14T03:33:08.055Z,1.70
2023-02-14T03:34:15.424Z,1.79
2023-02-14T03:35:23.958Z,1.80
2023-02-14T03:36:31.736Z,1.72
2023-02-14T03:37:41.653Z,1.65
2023-02-14T03:38:48.570Z,1.78
2023-02-14T03:39:59.584Z,1.85
2023-02-14T03:41:05.486Z,1.90
2023-02-14T03:42:12.603Z,1.94
2023-02-14T03:43:19.888Z,1.73
2023-02-14T03:44:25.846Z,1.50
2023-02-14T03:45:33.590Z,1.75
2023-02-14T03:46:40.731Z,1.81
2023-02-14T03:47:46.029Z,1.60
2023-02-14T03:48:51.573Z,1.62
2023-02-14T03:49:59.142Z,1.60
2023-02-14T03:51:02.819Z,1.71
2023-02-14T03:52:08.169Z,1.87
2023-02-14T03:53:13.457Z,1.66
2023-02-14T03:54:17.457Z,1.63
2023-02-14T03:55:25.034Z,1.58
2023-02-14T03:56:33.821Z,1.62
2023-02-14T03:57:40.289Z,1.49
2023-02-14T03:58:47.851Z,1.44
2023-02-14T03:59:50.080Z,1.16
2023-02-14T04:00:57.282Z,1.17
2023-02-14T04:02:06.156Z,1.18
2023-02-14T04:03:12.847Z,1.19
2023-02-14T04:04:15.964Z,1.19
2023-02-14T04:05:22.439Z,1.42
2023-02-14T04:06:24.106Z,1.41
2023-02-14T04:07:26.773Z,1.46
2023-02-14T04:08:30.318Z,1.51
2023-02-14T04:09:32.839Z,1.65
2023-02-14T04:10:34.378Z,1.49
2023-02-14T04:11:38.534Z,1.53
2023-02-14T04:12:40.122Z,1.50
2023-02-14T04:13:42.645Z,1.60
2023-02-14T04:14:44.343Z,1.64
2023-02-14T04:15:47.060Z,1.79
2023-02-14T04:17:03.597Z,1.77
2023-02-14T04:18:29.081Z,1.75
2023-02-14T04:19:30.632Z,1.72
2023-02-14T04:20:34.079Z,1.63
2023-02-14T04:21:35.664Z,1.73
2023-02-14T04:22:38.229Z,1.79
2023-02-14T04:23:41.148Z,1.95
2023-02-14T04:24:43.951Z,1.92
2023-02-14T04:25:46.529Z,2.05
2023-02-14T04:27:10.579Z,2.02
2023-02-14T04:28:14.040Z,2.24
2023-02-14T04:29:15.585Z,2.19
2023-02-14T04:30:20.960Z,2.34
2023-02-14T04:31:22.826Z,2.21
2023-02-14T04:32:25.603Z,2.28
2023-02-14T04:33:27.254Z,2.29
2023-02-14T04:34:29.872Z,2.29
2023-02-14T04:35:31.569Z,2.28
2023-02-14T04:36:34.163Z,2.22
2023-02-14T04:37:35.786Z,2.08
2023-02-14T04:38:38.722Z,2.18
2023-02-14T04:39:41.660Z,2.26
2023-02-14T04:40:45.267Z,2.31
2023-02-14T04:41:46.917Z,2.26
2023-02-14T04:42:49.647Z,2.32
2023-02-14T04:43:51.339Z,2.34
2023-02-14T04:44:53.988Z,2.27
2023-02-14T04:45:55.900Z,2.18
2023-02-14T04:47:00.339Z,2.30
2023-02-14T04:48:04.337Z,2.30
2023-02-14T04:49:06.857Z,2.40
2023-02-14T04:50:11.914Z,2.17
2023-02-14T04:51:13.663Z,2.31
2023-02-14T04:52:16.654Z,2.20
2023-02-14T04:53:19.482Z,2.08
2023-02-14T04:54:22.068Z,2.12
2023-02-14T04:55:26.355Z,2.41
2023-02-14T04:56:29.211Z,2.50
2023-02-14T04:57:32.312Z,2.46
2023-02-14T04:58:33.999Z,2.53
2023-02-14T04:59:36.630Z,2.45
2023-02-14T05:00:38.213Z,2.42
2023-02-14T05:01:40.923Z,2.35
2023-02-14T05:02:42.474Z,2.37
2023-02-14T05:03:45.078Z,2.39
2023-02-14T05:04:49.901Z,2.52
2023-02-14T05:05:51.757Z,2.47
2023-02-14T05:06:54.313Z,2.50
2023-02-14T05:07:56.203Z,2.48
2023-02-14T05:08:58.846Z,2.53
2023-02-14T05:10:00.435Z,2.47
2023-02-14T05:11:04.398Z,2.52
2023-02-14T05:12:07.484Z,2.33
2023-02-14T05:13:09.170Z,2.32
2023-02-14T05:14:11.805Z,2.41
2023-02-14T05:15:13.396Z,2.49
2023-02-14T05:16:15.967Z,2.53
2023-02-14T05:17:17.892Z,2.62
2023-02-14T05:18:20.418Z,2.61
2023-02-14T05:19:22.274Z,2.68
2023-02-14T05:20:24.755Z,2.61
2023-02-14T05:21:28.501Z,2.60
2023-02-14T05:22:30.089Z,2.47
2023-02-14T05:23:32.656Z,2.51
2023-02-14T05:24:34.206Z,2.57
2023-02-14T05:25:36.676Z,2.55
2023-02-14T05:26:41.195Z,2.63
2023-02-14T05:27:43.692Z,2.70
2023-02-14T05:28:45.367Z,2.67
2023-02-14T05:29:48.186Z,2.56
2023-02-14T05:30:50.897Z,2.52
2023-02-14T05:31:53.660Z,2.31
2023-02-14T05:32:55.456Z,2.34
2023-02-14T05:33:59.103Z,2.36
2023-02-14T05:35:13.151Z,2.30
2023-02-14T05:36:14.816Z,2.28
2023-02-14T05:37:20.230Z,2.23
2023-02-14T05:38:21.955Z,2.38
2023-02-14T05:39:24.613Z,2.33
2023-02-14T05:40:26.721Z,2.29
2023-02-14T05:41:29.498Z,2.30
2023-02-14T05:42:32.440Z,2.42
2023-02-14T05:43:39.052Z,2.32
2023-02-14T05:44:40.672Z,2.37
2023-02-14T05:45:43.261Z,2.52
2023-02-14T05:46:45.053Z,2.52
2023-02-14T05:47:49.647Z,2.51
2023-02-14T05:48:51.271Z,2.50
2023-02-14T05:49:53.787Z,2.58
2023-02-14T05:50:55.388Z,2.54
2023-02-14T05:51:57.929Z,2.70
2023-02-14T05:53:00.941Z,2.76
2023-02-14T05:54:05.001Z,2.80
2023-02-14T05:55:07.876Z,2.82
2023-02-14T05:56:10.882Z,2.84
2023-02-14T05:57:12.499Z,2.70
2023-02-14T05:58:16.313Z,2.58
2023-02-14T05:59:17.854Z,2.58
2023-02-14T06:00:24.143Z,2.74
2023-02-14T06:01:25.879Z,2.63
2023-02-14T06:02:28.719Z,2.68
2023-02-14T06:03:30.316Z,2.47
2023-02-14T06:04:32.886Z,2.60
2023-02-14T06:05:34.637Z,2.65
2023-02-14T06:06:37.271Z,2.63
2023-02-14T06:07:38.875Z,2.70
2023-02-14T06:08:41.491Z,2.60
2023-02-14T06:09:43.270Z,2.54
2023-02-14T06:10:45.773Z,2.61
2023-02-14T06:11:48.284Z,2.66
2023-02-14T06:12:51.385Z,2.53
2023-02-14T06:13:55.320Z,2.55
2023-02-14T06:14:56.884Z,2.75
2023-02-14T06:15:59.894Z,2.42
2023-02-14T06:17:02.496Z,2.46
2023-02-14T06:18:05.389Z,2.62
2023-02-14T06:19:08.008Z,2.57
2023-02-14T06:20:10.507Z,2.54
2023-02-14T06:21:13.104Z,2.65
2023-02-14T06:22:14.768Z,2.67
2023-02-14T06:23:17.661Z,2.52
2023-02-14T06:24:19.524Z,2.32
2023-02-14T06:25:23.067Z,2.50
2023-02-14T06:26:27.961Z,2.57
2023-02-14T06:27:30.663Z,2.57
2023-02-14T06:28:33.553Z,2.55
2023-02-14T06:29:37.583Z,2.68
2023-02-14T06:30:40.388Z,2.68
2023-02-14T06:31:42.441Z,2.83
2023-02-14T06:32:45.873Z,2.84
2023-02-14T06:33:48.698Z,2.26
2023-02-14T06:34:50.399Z,2.36
2023-02-14T06:35:54.691Z,2.32
2023-02-14T06:36:56.466Z,2.18
2023-02-14T06:37:59.023Z,2.38
2023-02-14T06:39:01.043Z,2.36
2023-02-14T06:40:03.633Z,2.43
2023-02-14T06:41:07.206Z,2.45
2023-02-14T06:42:08.958Z,2.61
2023-02-14T06:43:11.771Z,2.64
2023-02-14T06:44:13.329Z,2.80
2023-02-14T06:45:17.279Z,2.82
2023-02-14T06:46:19.164Z,2.85
2023-02-14T06:47:21.812Z,2.93
2023-02-14T06:48:23.844Z,2.85
2023-02-14T06:49:26.522Z,2.61
2023-02-14T06:50:29.152Z,2.75
2023-02-14T06:51:30.848Z,2.31
2023-02-14T06:52:33.973Z,2.26
2023-02-14T06:53:38.058Z,2.43
2023-02-14T06:54:43.463Z,2.53
2023-02-14T06:55:45.663Z,2.74
2023-02-14T06:56:48.215Z,2.95
2023-02-14T06:57:50.830Z,3.00
2023-02-14T06:58:53.654Z,3.03
2023-02-14T06:59:55.423Z,2.85
2023-02-14T07:01:00.433Z,2.84
2023-02-14T07:02:02.317Z,2.71
2023-02-14T07:03:04.966Z,2.75
2023-02-14T07:04:06.643Z,2.90
2023-02-14T07:05:09.889Z,2.96
2023-02-14T07:06:12.549Z,3.03
2023-02-14T07:07:15.194Z,3.20
2023-02-14T07:08:17.747Z,3.17
2023-02-14T07:09:22.003Z,3.12
2023-02-14T07:10:24.628Z,2.88
2023-02-14T07:11:28.652Z,2.96
2023-02-14T07:12:31.384Z,3.02
2023-02-14T07:13:33.043Z,3.18
2023-02-14T07:14:37.946Z,3.16
2023-02-14T07:15:40.824Z,3.06
2023-02-14T07:16:43.883Z,3.23
2023-02-14T07:17:47.127Z,3.06
2023-02-14T07:18:49.344Z,3.07
2023-02-14T07:19:55.747Z,3.15
2023-02-14T07:20:58.992Z,3.17
2023-02-14T07:22:01.872Z,3.34
2023-02-14T07:23:05.236Z,3.27
2023-02-14T07:24:08.059Z,3.39
2023-02-14T07:25:09.740Z,3.41
2023-02-14T07:26:12.414Z,3.41
2023-02-14T07:27:14.196Z,3.33
2023-02-14T07:28:16.959Z,3.29
2023-02-14T07:29:19.943Z,3.18
2023-02-14T07:30:23.183Z,3.26
2023-02-14T07:31:26.028Z,3.05
2023-02-14T07:32:29.127Z,2.87
2023-02-14T07:33:31.674Z,2.82
2023-02-14T07:34:34.336Z,2.79
2023-02-14T07:35:36.154Z,2.86
2023-02-14T07:36:38.913Z,2.83
2023-02-14T07:37:40.512Z,2.88
2023-02-14T07:38:43.247Z,2.95
2023-02-14T07:39:46.057Z,2.79
2023-02-14T07:40:50.700Z,2.79
2023-02-14T07:41:52.475Z,2.78
2023-02-14T07:42:56.008Z,2.83
2023-02-14T07:43:57.618Z,3.07
2023-02-14T07:45:03.138Z,2.92
2023-02-14T07:46:06.801Z,2.85
2023-02-14T07:47:10.840Z,2.83
2023-02-14T07:48:15.222Z,2.96
2023-02-14T07:49:17.990Z,3.02
2023-02-14T07:50:23.383Z,3.10
2023-02-14T07:51:27.255Z,3.09
2023-02-14T07:52:28.878Z,3.17
2023-02-14T07:53:31.735Z,2.90
2023-02-14T07:54:33.544Z,2.62
2023-02-14T07:55:36.440Z,2.57
2023-02-14T07:56:38.980Z,2.63
2023-02-14T07:57:40.893Z,2.71
2023-02-14T07:58:43.485Z,2.75
2023-02-14T07:59:46.006Z,2.76
2023-02-14T08:00:48.596Z,2.79
2023-02-14T08:01:50.205Z,2.61
2023-02-14T08:02:52.900Z,2.57
2023-02-14T08:03:57.172Z,2.71
2023-02-14T08:04:58.953Z,2.90
2023-02-14T08:06:01.630Z,2.66
2023-02-14T08:07:03.482Z,2.63
2023-02-14T08:08:06.073Z,2.77
2023-02-14T08:09:10.173Z,2.91
2023-02-14T08:10:13.372Z,2.78
2023-02-14T08:11:37.245Z,2.59
2023-02-14T08:12:57.662Z,2.46
2023-02-14T08:14:00.331Z,2.56
2023-02-14T08:15:16.828Z,2.51
2023-02-14T08:16:19.683Z,2.70
2023-02-14T08:17:21.486Z,2.60
2023-02-14T08:18:24.189Z,2.53
2023-02-14T08:19:30.581Z,2.58
2023-02-14T08:20:32.282Z,2.57
2023-02-14T08:21:35.610Z,2.56
2023-02-14T08:22:37.215Z,2.53
2023-02-14T08:23:40.592Z,2.48
2023-02-14T08:24:42.466Z,2.61
2023-02-14T08:25:45.157Z,2.78
2023-02-14T08:26:47.889Z,2.80
2023-02-14T08:27:49.574Z,2.86
2023-02-14T08:28:52.351Z,2.67
2023-02-14T08:29:54.083Z,2.47
2023-02-14T08:30:56.913Z,2.65
2023-02-14T08:32:00.576Z,2.40
2023-02-14T08:33:03.310Z,2.53
2023-02-14T08:34:05.895Z,2.68
2023-02-14T08:35:09.335Z,2.70
2023-02-14T08:36:12.043Z,3.02
2023-02-14T08:37:13.893Z,2.76
2023-02-14T08:38:17.990Z,2.63
2023-02-14T08:39:20.863Z,2.68
2023-02-14T08:40:22.612Z,2.71
2023-02-14T08:41:25.704Z,2.70
2023-02-14T08:42:27.462Z,2.51
2023-02-14T08:43:30.214Z,2.20
2023-02-14T08:44:33.602Z,2.37
2023-02-14T08:45:36.423Z,2.60
2023-02-14T08:46:39.107Z,2.74
2023-02-14T08:47:40.918Z,2.78
2023-02-14T08:48:44.393Z,2.78
2023-02-14T08:49:47.056Z,2.84
2023-02-14T08:50:51.197Z,2.95
2023-02-14T08:51:54.558Z,3.10
2023-02-14T08:52:57.260Z,3.33
2023-02-14T08:53:59.829Z,3.20
2023-02-14T08:55:02.524Z,3.26
2023-02-14T08:56:05.641Z,3.40
2023-02-14T08:57:07.527Z,3.43
2023-02-14T08:58:10.262Z,3.40
2023-02-14T08:59:15.680Z,3.38
2023-02-14T09:00:18.872Z,3.47
2023-02-14T09:01:22.071Z,3.55
2023-02-14T09:02:25.333Z,3.51
2023-02-14T09:03:26.840Z,3.62
2023-02-14T09:04:29.617Z,3.61
2023-02-14T09:05:32.538Z,3.52
2023-02-14T09:06:38.613Z,3.68
2023-02-14T09:07:41.496Z,3.77
2023-02-14T09:08:44.393Z,3.67
2023-02-14T09:09:47.167Z,3.70
2023-02-14T09:10:49.757Z,3.76
2023-02-14T09:11:52.334Z,3.75
2023-02-14T09:12:55.091Z,3.81
2023-02-14T09:13:57.825Z,3.96
2023-02-14T09:15:00.331Z,3.97
2023-02-14T09:16:05.023Z,4.07
2023-02-14T09:17:08.255Z,4.06
2023-02-14T09:18:10.997Z,4.13
2023-02-14T09:19:14.927Z,4.00
2023-02-14T09:20:17.802Z,4.10
2023-02-14T09:21:24.051Z,4.06
2023-02-14T09:22:28.643Z,4.19
2023-02-14T09:23:30.323Z,4.17
2023-02-14T09:24:34.502Z,4.19
2023-02-14T09:25:37.266Z,4.53
2023-02-14T09:26:42.100Z,4.53
2023-02-14T09:27:44.672Z,4.52
2023-02-14T09:28:47.632Z,4.44
2023-02-14T09:29:50.138Z,4.47
2023-02-14T09:30:54.067Z,4.46
2023-02-14T09:31:59.739Z,4.56
2023-02-14T09:33:05.460Z,4.69
2023-02-14T09:34:08.122Z,4.72
2023-02-14T09:35:27.967Z,4.76
2023-02-14T09:36:48.460Z,4.87
2023-02-14T09:38:10.105Z,5.00
2023-02-14T09:39:12.908Z,5.01
2023-02-14T09:40:17.861Z,5.00
2023-02-14T09:41:49.973Z,5.03
2023-02-14T09:43:02.295Z,5.33
2023-02-14T09:44:08.152Z,5.54
2023-02-14T09:45:14.388Z,5.29
2023-02-14T09:46:18.968Z,5.31
2023-02-14T09:47:26.943Z,5.17
2023-02-14T09:48:36.323Z,5.36
2023-02-14T09:49:39.890Z,5.47
2023-02-14T09:50:46.830Z,5.42
2023-02-14T09:51:53.313Z,5.49
2023-02-14T09:53:01.533Z,5.56
2023-02-14T09:54:12.066Z,5.74
2023-02-14T09:55:17.316Z,5.73
2023-02-14T09:56:26.714Z,5.88
2023-02-14T09:57:40.888Z,5.72
2023-02-14T09:58:51.323Z,5.86
2023-02-14T09:59:57.877Z,5.98
2023-02-14T10:01:06.357Z,6.18
2023-02-14T10:02:34.861Z,6.16
2023-02-14T10:03:47.055Z,6.32
2023-02-14T10:05:05.709Z,6.37
2023-02-14T10:06:18.785Z,6.36
2023-02-14T10:07:32.275Z,6.33
2023-02-14T10:08:48.636Z,6.09
2023-02-14T10:09:58.174Z,6.20
2023-02-14T10:11:06.757Z,6.38
2023-02-14T10:12:14.413Z,6.59
2023-02-14T10:13:24.572Z,6.71
2023-02-14T10:14:29.907Z,6.90
2023-02-14T10:15:35.734Z,7.13
2023-02-14T10:16:42.660Z,7.28
2023-02-14T10:17:49.157Z,7.47
2023-02-14T10:18:55.421Z,7.68
2023-02-14T10:20:02.876Z,8.02
2023-02-14T10:21:08.896Z,7.99
2023-02-14T10:22:14.801Z,8.07
2023-02-14T10:23:31.312Z,8.19
2023-02-14T10:24:41.767Z,8.21
2023-02-14T10:25:49.778Z,8.40
2023-02-14T10:26:57.750Z,7.94
2023-02-14T10:28:03.101Z,7.78
2023-02-14T10:29:09.569Z,7.97
2023-02-14T10:30:17.338Z,8.32
2023-02-14T10:31:22.837Z,8.36
2023-02-14T10:32:32.951Z,8.36
2023-02-14T10:33:39.431Z,8.88
2023-02-14T10:34:47.874Z,9.43
2023-02-14T10:35:51.045Z,9.85
2023-02-14T10:37:05.210Z,10.71
2023-02-14T10:38:24.084Z,11.99
2023-02-14T10:39:48.866Z,13.32
2023-02-14T10:41:23.786Z,13.25
2023-02-14T10:42:34.224Z,13.35
2023-02-14T10:43:48.902Z,14.44
2023-02-14T10:45:00.556Z,15.76
2023-02-14T10:46:15.951Z,16.17
2023-02-14T10:47:34.170Z,17.62
2023-02-14T10:48:52.340Z,17.54
2023-02-14T10:50:06.570Z,17.03
2023-02-14T10:51:17.413Z,17.31
2023-02-14T10:52:24.635Z,18.21
2023-02-14T10:53:37.178Z,19.15
2023-02-14T10:54:45.061Z,20.06
2023-02-14T10:55:54.998Z,20.88
2023-02-14T10:57:06.134Z,21.57
2023-02-14T10:58:15.537Z,21.24
2023-02-14T10:59:23.695Z,21.75
2023-02-14T11:00:29.560Z,22.40
2023-02-14T11:01:32.351Z,22.73
2023-02-14T11:02:37.985Z,22.34
2023-02-14T11:03:45.294Z,22.69
2023-02-14T11:04:49.399Z,23.02
2023-02-14T11:05:52.565Z,22.59
2023-02-14T11:06:54.486Z,21.45
2023-02-14T11:07:58.995Z,21.07
2023-02-14T11:09:01.887Z,20.24
2023-02-14T11:10:12.533Z,21.33
2023-02-14T11:11:20.464Z,20.52
2023-02-14T11:12:34.891Z,20.35
2023-02-14T11:13:39.382Z,21.58
2023-02-14T11:14:42.081Z,22.44
2023-02-14T11:15:49.318Z,22.71
2023-02-14T11:16:55.341Z,23.00
2023-02-14T11:18:18.034Z,23.10
2023-02-14T11:19:25.414Z,22.80
2023-02-14T11:20:31.035Z,22.77
2023-02-14T11:21:39.220Z,23.95
2023-02-14T11:22:41.806Z,24.90
2023-02-14T11:23:46.533Z,25.81
2023-02-14T11:24:49.238Z,26.03
2023-02-14T11:25:55.669Z,25.30
2023-02-14T11:27:00.774Z,24.47
2023-02-14T11:28:05.156Z,25.18
2023-02-14T11:29:14.413Z,25.31
2023-02-14T11:30:24.225Z,26.23
2023-02-14T11:31:30.028Z,25.75
2023-02-14T11:32:37.756Z,25.84
2023-02-14T11:33:44.239Z,26.17
2023-02-14T11:34:53.916Z,26.34
2023-02-14T11:35:57.548Z,26.93
2023-02-14T11:37:00.905Z,26.59
2023-02-14T11:38:05.798Z,26.60
2023-02-14T11:39:25.806Z,26.08
2023-02-14T11:40:31.056Z,26.73
2023-02-14T11:41:51.427Z,25.54
2023-02-14T11:43:02.155Z,25.58
2023-02-14T11:44:27.145Z,25.80
2023-02-14T11:45:33.844Z,26.08
2023-02-14T11:46:44.390Z,25.51
2023-02-14T11:48:10.416Z,25.26
2023-02-14T11:49:31.293Z,25.87
2023-02-14T11:50:33.293Z,26.04
2023-02-14T11:51:40.677Z,26.68
2023-02-14T11:52:51.434Z,27.00
2023-02-14T11:53:55.965Z,26.61
2023-02-14T11:54:59.666Z,26.46
2023-02-14T11:56:04.056Z,26.90
2023-02-14T11:57:14.910Z,26.89
2023-02-14T11:58:32.395Z,27.14
2023-02-14T11:59:41.945Z,27.09
2023-02-14T12:00:51.954Z,27.47
2023-02-14T12:01:56.756Z,27.45
2023-02-14T12:03:01.988Z,28.02
2023-02-14T12:04:07.406Z,27.96
2023-02-14T12:05:20.703Z,27.95
2023-02-14T12:06:25.492Z,26.54
2023-02-14T12:07:31.984Z,26.48
2023-02-14T12:08:37.607Z,27.24
2023-02-14T12:09:41.517Z,27.60
2023-02-14T12:10:44.112Z,26.99
2023-02-14T12:11:56.513Z,27.28
2023-02-14T12:13:04.017Z,27.47
2023-02-14T12:14:07.221Z,27.93
2023-02-14T12:15:34.773Z,28.07
2023-02-14T12:16:47.376Z,28.17
2023-02-14T12:17:53.876Z,28.13
2023-02-14T12:19:01.159Z,28.23
2023-02-14T12:20:12.947Z,28.58
2023-02-14T12:21:26.877Z,29.43
2023-02-14T12:22:34.400Z,29.37
2023-02-14T12:23:47.524Z,27.78
2023-02-14T12:24:58.614Z,26.54
2023-02-14T12:26:07.362Z,24.59
2023-02-14T12:27:22.802Z,25.15
2023-02-14T12:28:31.819Z,24.36
2023-02-14T12:29:39.913Z,24.09
2023-02-14T12:30:42.922Z,22.55
2023-02-14T12:31:47.248Z,19.69
2023-02-14T12:32:51.538Z,18.38
2023-02-14T12:33:54.612Z,20.06
2023-02-14T12:35:03.191Z,22.46
2023-02-14T12:36:14.142Z,24.35
2023-02-14T12:37:27.501Z,25.39
2023-02-14T12:38:39.711Z,26.22
2023-02-14T12:39:59.935Z,26.71
2023-02-14T12:41:17.200Z,27.00
2023-02-14T12:42:35.096Z,27.92
2023-02-14T12:43:50.727Z,27.79
2023-02-14T12:45:04.815Z,28.14
2023-02-14T12:46:21.653Z,27.35
2023-02-14T12:47:34.750Z,27.03
2023-02-14T12:48:51.265Z,24.57
2023-02-14T12:50:33.740Z,20.12
2023-02-14T12:51:43.380Z,21.97
2023-02-14T12:52:56.222Z,22.48
2023-02-14T12:54:15.988Z,22.12
2023-02-14T12:55:48.366Z,21.14
2023-02-14T12:57:01.688Z,21.55
2023-02-14T12:58:19.342Z,22.98
2023-02-14T12:59:31.932Z,21.87
2023-02-14T13:00:47.779Z,23.80
2023-02-14T13:02:32.387Z,24.46
2023-02-14T13:03:59.746Z,23.85
2023-02-14T13:05:10.112Z,23.25
2023-02-14T13:06:19.596Z,24.05
2023-02-14T13:07:50.565Z,22.84
2023-02-14T13:09:01.571Z,21.37
2023-02-14T13:10:14.978Z,19.82
2023-02-14T13:11:28.984Z,20.73
2023-02-14T13:12:38.417Z,22.91
2023-02-14T13:13:53.550Z,24.54
2023-02-14T13:15:07.810Z,25.30
2023-02-14T13:16:18.438Z,26.77
2023-02-14T13:17:27.327Z,27.81
2023-02-14T13:18:40.725Z,27.26
2023-02-14T13:19:49.639Z,25.60
2023-02-14T13:20:54.477Z,23.28
2023-02-14T13:21:59.838Z,21.00
2023-02-14T13:23:12.015Z,21.05
2023-02-14T13:24:19.378Z,22.05
2023-02-14T13:25:31.887Z,22.01
2023-02-14T13:26:39.609Z,20.59
2023-02-14T13:27:42.835Z,21.25
2023-02-14T13:28:51.703Z,20.75
2023-02-14T13:29:58.127Z,20.62
2023-02-14T13:31:02.858Z,22.09
2023-02-14T13:32:06.575Z,24.20
2023-02-14T13:33:15.516Z,25.64
2023-02-14T13:34:25.455Z,25.82
2023-02-14T13:35:30.395Z,26.02
2023-02-14T13:36:33.878Z,24.91
2023-02-14T13:37:38.091Z,25.11
2023-02-14T13:38:45.861Z,25.03
2023-02-14T13:39:52.860Z,24.27
2023-02-14T13:40:56.498Z,23.64
2023-02-14T13:41:59.326Z,21.99
2023-02-14T13:43:02.009Z,20.48
2023-02-14T13:44:05.587Z,20.74
2023-02-14T13:45:53.840Z,21.31
2023-02-14T13:46:58.233Z,20.24
2023-02-14T13:48:04.824Z,22.06
2023-02-14T13:49:27.867Z,22.06
2023-02-14T13:50:29.609Z,20.90
2023-02-14T13:51:46.214Z,20.72
2023-02-14T13:52:50.090Z,21.75
2023-02-14T13:53:55.734Z,23.27
2023-02-14T13:55:03.271Z,23.62
2023-02-14T13:56:27.179Z,24.06
2023-02-14T13:57:34.070Z,24.82
2023-02-14T13:58:35.934Z,21.67
2023-02-14T13:59:38.815Z,18.86
2023-02-14T14:00:42.401Z,17.97
2023-02-14T14:01:50.087Z,18.29
2023-02-14T14:02:59.070Z,18.28
2023-02-14T14:04:04.317Z,18.58
2023-02-14T14:05:42.873Z,17.47
2023-02-14T14:07:16.337Z,17.23
2023-02-14T14:08:39.492Z,17.39
2023-02-14T14:09:59.570Z,18.60
2023-02-14T14:11:04.907Z,18.87
2023-02-14T14:12:38.550Z,19.78
2023-02-14T14:14:02.206Z,20.01
2023-02-14T14:15:19.319Z,20.13
2023-02-14T14:16:29.396Z,19.07
2023-02-14T14:17:33.659Z,19.51
2023-02-14T14:18:42.870Z,18.65
2023-02-14T14:19:47.126Z,20.62
2023-02-14T14:20:50.018Z,21.05
2023-02-14T14:22:02.008Z,22.39
2023-02-14T14:23:04.885Z,23.11
2023-02-14T14:24:23.007Z,23.74
2023-02-14T14:25:32.804Z,22.68
2023-02-14T14:26:36.924Z,20.15
2023-02-14T14:27:46.841Z,18.62
2023-02-14T14:28:48.721Z,19.14
2023-02-14T14:29:54.590Z,19.35
2023-02-14T14:30:57.351Z,19.10
2023-02-14T14:31:59.210Z,18.57
2023-02-14T14:33:14.360Z,16.92
2023-02-14T14:34:20.336Z,17.41
2023-02-14T14:35:25.186Z,17.68
2023-02-14T14:36:29.815Z,17.26
2023-02-14T14:37:34.207Z,18.41
2023-02-14T14:38:49.269Z,20.16
2023-02-14T14:39:52.283Z,21.60
2023-02-14T14:40:55.324Z,22.25
2023-02-14T14:42:07.376Z,22.24
2023-02-14T14:43:15.026Z,22.65